createdAt,value
2023-02-08T00:01:19.702Z,242.11
2023-02-08T00:02:19.735Z,242.08
2023-02-08T00:03:19.683Z,241.59
2023-02-08T00:04:19.666Z,240.35
2023-02-08T00:05:19.658Z,238.72
2023-02-08T00:55:32.370Z,25.00
2023-02-08T00:56:33.335Z,25.00
2023-02-08T00:57:33.337Z,25.00
2023-02-08T00:58:33.313Z,25.00
2023-02-08T00:59:33.306Z,25.00
2023-02-08T01:00:33.393Z,25.00
2023-02-08T01:01:33.394Z,0.00
2023-02-08T01:02:33.290Z,0.00
2023-02-08T01:03:33.267Z,0.00
2023-02-08T01:04:33.263Z,0.00
2023-02-08T01:05:33.257Z,0.00
2023-02-08T01:06:33.246Z,4.79
2023-02-08T01:07:33.248Z,21.29
2023-02-08T01:08:33.225Z,25.37
2023-02-08T01:09:33.216Z,25.00
2023-02-08T01:10:33.209Z,25.00
2023-02-08T01:11:33.223Z,25.00
2023-02-08T01:12:33.195Z,26.78
2023-02-08T01:13:33.181Z,25.00
2023-02-08T01:14:33.173Z,26.08
2023-02-08T01:15:33.168Z,25.00
2023-02-08T01:16:33.210Z,25.00
2023-02-08T01:17:33.146Z,25.00
2023-02-08T01:18:33.140Z,25.76
2023-02-08T01:19:33.129Z,26.39
2023-02-08T01:20:33.126Z,25.64
2023-02-08T01:21:33.113Z,27.17
2023-02-08T01:22:33.101Z,25.41
2023-02-08T01:23:33.093Z,25.00
2023-02-08T01:24:33.089Z,25.66
2023-02-08T01:25:33.080Z,25.00
2023-02-08T01:26:33.070Z,28.08
2023-02-08T01:27:33.084Z,25.46
2023-02-08T01:28:33.050Z,25.70
2023-02-08T01:29:33.041Z,25.96
2023-02-08T01:30:33.055Z,29.11
2023-02-08T01:31:33.063Z,27.41
2023-02-08T01:32:33.021Z,25.60
2023-02-08T01:33:33.014Z,25.95
2023-02-08T01:34:33.003Z,25.63
2023-02-08T01:35:32.992Z,27.55
2023-02-08T01:36:32.981Z,26.69
2023-02-08T01:37:32.975Z,29.30
2023-02-08T01:38:32.967Z,29.64
2023-02-08T01:39:32.953Z,25.12
2023-02-08T01:40:32.945Z,28.59
2023-02-08T01:41:32.937Z,26.24
2023-02-08T01:42:32.936Z,28.39
2023-02-08T01:43:32.945Z,27.28
2023-02-08T01:44:32.910Z,27.04
2023-02-08T01:45:32.917Z,26.77
2023-02-08T01:46:32.901Z,25.00
2023-02-08T01:47:32.885Z,27.24
2023-02-08T01:48:32.887Z,25.00
2023-02-08T01:49:32.866Z,29.68
2023-02-08T01:50:32.864Z,30.50
2023-02-08T01:51:32.853Z,28.79
2023-02-08T01:52:32.838Z,28.22
2023-02-08T01:53:32.831Z,26.55
2023-02-08T01:54:32.822Z,27.10
2023-02-08T01:55:32.815Z,27.73
2023-02-08T01:56:32.803Z,27.26
2023-02-08T01:57:32.802Z,27.49
2023-02-08T01:58:32.795Z,28.13
2023-02-08T01:59:32.801Z,27.95
2023-02-08T02:00:32.770Z,27.88
2023-02-08T02:01:32.762Z,26.74
2023-02-08T02:02:32.750Z,27.38
2023-02-08T02:03:32.746Z,29.56
2023-02-08T02:04:32.741Z,29.59
2023-02-08T02:05:32.724Z,26.70
2023-02-08T02:06:32.716Z,28.37
2023-02-08T02:07:32.705Z,28.46
2023-02-08T02:08:32.707Z,26.22
2023-02-08T02:09:32.691Z,27.05
2023-02-08T02:10:32.683Z,29.86
2023-02-08T02:11:32.676Z,25.54
2023-02-08T02:12:32.665Z,26.22
2023-02-08T02:13:32.664Z,29.37
2023-02-08T02:14:32.655Z,27.84
2023-02-08T02:15:32.704Z,28.61
2023-02-08T02:16:32.707Z,27.20
2023-02-08T02:17:32.623Z,27.04
2023-02-08T02:18:32.643Z,25.00
2023-02-08T02:19:32.611Z,29.48
2023-02-08T02:20:32.601Z,28.56
2023-02-08T02:21:32.590Z,29.81
2023-02-08T02:22:32.626Z,28.22
2023-02-08T02:23:32.567Z,30.96
2023-02-08T02:24:32.569Z,27.57
2023-02-08T02:25:32.555Z,28.23
2023-02-08T02:26:32.539Z,30.66
2023-02-08T02:27:32.533Z,29.33
2023-02-08T02:28:32.532Z,29.15
2023-02-08T02:29:32.521Z,29.02
2023-02-08T02:30:32.523Z,27.38
2023-02-08T02:31:32.585Z,26.46
2023-02-08T02:32:32.489Z,29.50
2023-02-08T02:33:32.480Z,27.42
2023-02-08T02:34:32.475Z,28.01
2023-02-08T02:35:32.463Z,27.94
2023-02-08T02:36:32.459Z,28.21
2023-02-08T02:37:32.449Z,28.27
2023-02-08T02:38:32.441Z,27.02
2023-02-08T02:39:32.427Z,27.84
2023-02-08T02:40:32.422Z,28.15
2023-02-08T02:41:32.411Z,30.85
2023-02-08T02:42:32.401Z,28.77
2023-02-08T02:43:32.391Z,26.45
2023-02-08T02:44:32.386Z,30.83
2023-02-08T02:45:32.429Z,27.24
2023-02-08T02:46:32.366Z,31.47
2023-02-08T02:47:32.383Z,27.87
2023-02-08T02:48:32.356Z,28.03
2023-02-08T02:49:32.344Z,29.76
2023-02-08T02:50:32.340Z,30.71
2023-02-08T02:51:32.325Z,27.91
2023-02-08T02:52:32.321Z,29.09
2023-02-08T02:53:32.322Z,30.37
2023-02-08T02:54:32.307Z,30.19
2023-02-08T02:55:32.293Z,29.44
2023-02-08T02:56:32.287Z,28.51
2023-02-08T02:57:32.273Z,29.95
2023-02-08T02:58:32.272Z,30.47
2023-02-08T02:59:32.258Z,28.61
2023-02-08T03:00:32.250Z,29.03
2023-02-08T03:01:32.355Z,29.52
2023-02-08T03:02:32.230Z,28.35
2023-02-08T03:03:32.248Z,31.48
2023-02-08T03:04:32.257Z,28.30
2023-02-08T03:05:32.205Z,29.03
2023-02-08T03:06:32.194Z,31.58
2023-02-08T03:07:32.189Z,32.37
2023-02-08T03:08:32.180Z,31.40
2023-02-08T03:09:32.170Z,30.23
2023-02-08T03:10:32.162Z,28.87
2023-02-08T03:11:32.154Z,28.29
2023-02-08T03:12:32.154Z,30.29
2023-02-08T03:13:32.137Z,29.63
2023-02-08T03:14:32.131Z,28.44
2023-02-08T03:15:32.119Z,28.80
2023-02-08T03:16:32.128Z,29.85
2023-02-08T03:17:32.108Z,29.68
2023-02-08T03:18:32.093Z,28.68
2023-02-08T03:19:32.111Z,29.38
2023-02-08T03:20:32.073Z,30.02
2023-02-08T03:21:32.067Z,31.02
2023-02-08T03:22:32.061Z,30.43
2023-02-08T03:23:32.048Z,28.18
2023-02-08T03:24:32.040Z,27.81
2023-02-08T03:25:32.034Z,27.74
2023-02-08T03:26:32.024Z,29.92
2023-02-08T03:27:32.014Z,28.29
2023-02-08T03:28:32.005Z,28.53
2023-02-08T03:29:32.001Z,28.82
2023-02-08T03:30:31.989Z,26.95
2023-02-08T03:31:32.124Z,29.56
2023-02-08T03:32:31.968Z,29.67
2023-02-08T03:33:31.962Z,29.67
2023-02-08T03:34:31.952Z,29.10
2023-02-08T03:35:31.971Z,28.45
2023-02-08T03:36:31.938Z,29.34
2023-02-08T03:37:31.933Z,29.96
2023-02-08T03:38:31.917Z,29.27
2023-02-08T03:39:31.913Z,30.38
2023-02-08T03:40:31.935Z,29.74
2023-02-08T03:41:31.931Z,28.58
2023-02-08T03:42:31.885Z,27.28
2023-02-08T03:43:31.875Z,29.42
2023-02-08T03:44:31.865Z,29.78
2023-02-08T03:45:31.874Z,28.98
2023-02-08T03:46:31.851Z,27.18
2023-02-08T03:47:31.839Z,27.99
2023-02-08T03:48:31.830Z,29.47
2023-02-08T03:49:31.821Z,29.70
2023-02-08T03:50:31.818Z,28.76
2023-02-08T03:51:31.828Z,27.97
2023-02-08T03:52:31.796Z,27.85
2023-02-08T03:53:31.789Z,28.76
2023-02-08T03:54:31.777Z,26.43
2023-02-08T03:55:31.777Z,29.61
2023-02-08T03:56:31.767Z,29.88
2023-02-08T03:57:31.762Z,29.09
2023-02-08T03:58:31.739Z,29.24
2023-02-08T03:59:31.733Z,31.28
2023-02-08T04:00:31.723Z,29.93
2023-02-08T04:01:31.717Z,30.00
2023-02-08T04:02:31.726Z,30.05
2023-02-08T04:03:31.697Z,30.15
2023-02-08T04:04:31.686Z,29.45
2023-02-08T04:05:31.677Z,29.49
2023-02-08T04:06:31.666Z,33.18
2023-02-08T04:07:31.688Z,30.47
2023-02-08T04:08:31.649Z,30.90
2023-02-08T04:09:31.649Z,28.67
2023-02-08T04:10:31.659Z,28.97
2023-02-08T04:11:31.627Z,30.80
2023-02-08T04:12:31.614Z,31.28
2023-02-08T04:13:31.615Z,31.50
2023-02-08T04:14:31.598Z,29.42
2023-02-08T04:15:31.653Z,30.96
2023-02-08T04:16:31.587Z,29.49
2023-02-08T04:17:31.571Z,31.65
2023-02-08T04:18:31.568Z,28.41
2023-02-08T04:19:31.554Z,28.47
2023-02-08T04:20:31.545Z,30.90
2023-02-08T04:21:31.539Z,29.78
2023-02-08T04:22:31.530Z,31.17
2023-02-08T04:23:31.546Z,30.47
2023-02-08T04:24:31.511Z,31.39
2023-02-08T04:25:31.509Z,29.86
2023-02-08T04:26:31.498Z,30.56
2023-02-08T04:27:31.493Z,32.16
2023-02-08T04:28:31.474Z,29.71
2023-02-08T04:29:31.471Z,28.18
2023-02-08T04:30:31.495Z,29.86
2023-02-08T04:31:31.547Z,33.32
2023-02-08T04:32:31.447Z,28.39
2023-02-08T04:33:31.440Z,30.80
2023-02-08T04:34:31.429Z,29.82
2023-02-08T04:35:31.415Z,28.75
2023-02-08T04:36:31.409Z,30.62
2023-02-08T04:37:31.401Z,29.97
2023-02-08T04:38:31.398Z,30.83
2023-02-08T04:39:31.404Z,30.12
2023-02-08T04:40:31.371Z,28.61
2023-02-08T04:41:31.367Z,28.44
2023-02-08T04:42:31.356Z,29.16
2023-02-08T04:43:31.349Z,30.02
2023-02-08T04:44:31.340Z,29.79
2023-02-08T04:45:31.338Z,30.71
2023-02-08T04:46:31.358Z,30.22
2023-02-08T04:47:31.312Z,31.50
2023-02-08T04:48:31.307Z,32.62
2023-02-08T04:49:31.301Z,30.00
2023-02-08T04:50:31.303Z,28.61
2023-02-08T04:51:31.281Z,29.44
2023-02-08T04:52:31.298Z,29.36
2023-02-08T04:53:31.266Z,30.02
2023-02-08T04:54:31.266Z,31.31
2023-02-08T04:55:31.269Z,29.01
2023-02-08T04:56:31.242Z,29.13
2023-02-08T04:57:31.226Z,27.57
2023-02-08T04:58:31.224Z,28.15
2023-02-08T04:59:31.209Z,31.51
2023-02-08T05:00:31.212Z,28.49
2023-02-08T05:01:31.233Z,29.84
2023-02-08T05:02:31.190Z,31.26
2023-02-08T05:03:31.172Z,28.90
2023-02-08T05:04:31.165Z,28.69
2023-02-08T05:05:31.157Z,28.16
2023-02-08T05:06:31.158Z,28.77
2023-02-08T05:07:31.138Z,28.03
2023-02-08T05:08:31.130Z,28.07
2023-02-08T05:09:31.125Z,28.10
2023-02-08T05:10:31.109Z,29.44
2023-02-08T05:11:31.126Z,28.61
2023-02-08T05:12:31.099Z,26.85
2023-02-08T05:13:31.096Z,29.53
2023-02-08T05:14:31.079Z,31.17
2023-02-08T05:15:31.066Z,25.00
2023-02-08T05:16:31.063Z,31.07
2023-02-08T05:17:31.045Z,28.82
2023-02-08T05:18:31.038Z,29.11
2023-02-08T05:19:31.029Z,28.97
2023-02-08T05:20:31.077Z,28.81
2023-02-08T05:21:31.016Z,30.84
2023-02-08T05:22:31.004Z,28.46
2023-02-08T05:23:30.994Z,30.98
2023-02-08T05:24:30.985Z,30.13
2023-02-08T05:25:30.977Z,29.76
2023-02-08T05:26:30.969Z,28.31
2023-02-08T05:27:30.986Z,28.28
2023-02-08T05:28:30.954Z,28.77
2023-02-08T05:29:30.943Z,28.74
2023-02-08T05:30:30.941Z,29.79
2023-02-08T05:31:31.039Z,28.42
2023-02-08T05:32:30.916Z,30.65
2023-02-08T05:33:30.911Z,29.33
2023-02-08T05:34:30.901Z,28.92
2023-02-08T05:35:30.891Z,27.69
2023-02-08T05:36:30.879Z,29.95
2023-02-08T05:37:30.873Z,29.44
2023-02-08T05:38:30.869Z,29.62
2023-02-08T05:39:30.852Z,29.44
2023-02-08T05:40:30.841Z,30.22
2023-02-08T05:41:30.838Z,28.43
2023-02-08T05:42:30.865Z,29.03
2023-02-08T05:43:30.848Z,27.66
2023-02-08T05:44:30.815Z,29.37
2023-02-08T05:45:30.801Z,28.59
2023-02-08T05:46:30.862Z,28.40
2023-02-08T05:47:30.797Z,31.43
2023-02-08T05:48:30.775Z,30.44
2023-02-08T05:49:30.764Z,30.65
2023-02-08T05:50:30.755Z,30.09
2023-02-08T05:51:30.753Z,28.69
2023-02-08T05:52:30.734Z,29.51
2023-02-08T05:53:30.728Z,29.14
2023-02-08T05:54:30.717Z,28.83
2023-02-08T05:55:30.709Z,28.52
2023-02-08T05:56:30.708Z,29.72
2023-02-08T05:57:31.931Z,30.34
2023-02-08T05:58:30.687Z,30.19
2023-02-08T05:59:30.699Z,31.29
2023-02-08T06:00:30.664Z,27.98
2023-02-08T06:01:30.660Z,28.66
2023-02-08T06:02:30.652Z,26.51
2023-02-08T06:03:30.640Z,29.51
2023-02-08T06:04:30.634Z,29.03
2023-02-08T06:05:30.624Z,29.18
2023-02-08T06:06:30.616Z,29.27
2023-02-08T06:07:30.603Z,25.24
2023-02-08T06:08:30.631Z,27.75
2023-02-08T06:09:30.591Z,26.23
2023-02-08T06:10:30.576Z,27.72
2023-02-08T06:11:30.568Z,27.79
2023-02-08T06:12:30.576Z,29.16
2023-02-08T06:13:30.553Z,31.14
2023-02-08T06:14:30.547Z,25.53
2023-02-08T06:15:30.563Z,25.72
2023-02-08T06:16:30.578Z,25.89
2023-02-08T06:17:30.982Z,26.37
2023-02-08T06:18:30.515Z,27.76
2023-02-08T06:19:30.526Z,27.71
2023-02-08T06:20:30.495Z,27.07
2023-02-08T06:21:30.493Z,28.69
2023-02-08T06:22:30.489Z,25.97
2023-02-08T06:23:30.475Z,28.30
2023-02-08T06:24:30.456Z,31.04
2023-02-08T06:25:30.447Z,29.99
2023-02-08T06:26:30.438Z,29.36
2023-02-08T06:27:30.427Z,29.87
2023-02-08T06:28:30.503Z,29.80
2023-02-08T06:29:30.510Z,28.97
2023-02-08T06:30:30.406Z,30.16
2023-02-08T06:31:30.459Z,30.56
2023-02-08T06:32:30.532Z,28.06
2023-02-08T06:33:30.379Z,29.49
2023-02-08T06:34:30.372Z,32.29
2023-02-08T06:35:30.357Z,36.06
2023-02-08T06:36:30.360Z,48.47
2023-02-08T06:37:30.347Z,45.79
2023-02-08T06:38:30.357Z,46.30
2023-02-08T06:39:30.351Z,44.44
2023-02-08T06:40:30.326Z,44.30
2023-02-08T06:41:30.501Z,44.56
2023-02-08T06:42:30.303Z,46.38
2023-02-08T06:43:30.292Z,48.90
2023-02-08T06:44:30.292Z,47.56
2023-02-08T06:45:30.329Z,45.88
2023-02-08T06:46:30.508Z,46.74
2023-02-08T06:47:30.283Z,44.11
2023-02-08T06:48:30.254Z,46.78
2023-02-08T06:49:30.240Z,60.30
2023-02-08T06:50:30.512Z,62.01
2023-02-08T06:51:30.253Z,57.75
2023-02-08T06:52:30.509Z,57.39
2023-02-08T06:53:30.240Z,60.08
2023-02-08T06:54:30.201Z,61.94
2023-02-08T06:55:30.191Z,64.78
2023-02-08T06:56:30.178Z,68.36
2023-02-08T06:57:30.503Z,65.24
2023-02-08T06:58:30.162Z,68.04
2023-02-08T06:59:30.149Z,51.33
2023-02-08T07:00:30.148Z,61.11
2023-02-08T07:01:30.224Z,75.04
2023-02-08T07:02:30.550Z,73.43
2023-02-08T07:04:30.530Z,71.35
2023-02-08T07:05:30.102Z,68.46
2023-02-08T07:06:30.091Z,72.74
2023-02-08T07:07:30.104Z,75.33
2023-02-08T07:08:30.508Z,79.54
2023-02-08T07:09:30.536Z,77.96
2023-02-08T07:10:30.117Z,79.89
2023-02-08T07:12:30.034Z,83.00
2023-02-08T07:13:30.070Z,84.36
2023-02-08T07:14:30.529Z,85.90
2023-02-08T07:15:30.013Z,92.09
2023-02-08T07:16:30.045Z,99.40
2023-02-08T07:17:29.994Z,108.07
2023-02-08T07:18:29.985Z,106.65
2023-02-08T07:19:30.038Z,110.10
2023-02-08T07:20:30.005Z,112.26
2023-02-08T07:21:29.955Z,114.26
2023-02-08T07:22:29.954Z,116.99
2023-02-08T07:23:29.978Z,118.32
2023-02-08T07:24:29.968Z,118.31
2023-02-08T07:26:29.915Z,121.57
2023-02-08T07:27:29.922Z,122.45
2023-02-08T07:28:29.920Z,125.27
2023-02-08T07:29:30.019Z,131.85
2023-02-08T07:30:29.952Z,140.68
2023-02-08T07:31:29.896Z,140.61
2023-02-08T07:32:29.871Z,137.49
2023-02-08T07:33:29.856Z,139.98
2023-02-08T07:34:29.848Z,141.12
2023-02-08T07:35:29.969Z,139.76
2023-02-08T07:36:29.829Z,139.95
2023-02-08T07:37:29.846Z,139.52
2023-02-08T07:38:29.809Z,140.73
2023-02-08T07:39:30.024Z,142.88
2023-02-08T07:40:29.791Z,142.02
2023-02-08T07:41:30.022Z,142.93
2023-02-08T07:42:29.772Z,145.17
2023-02-08T07:43:29.770Z,142.32
2023-02-08T07:44:29.764Z,144.12
2023-02-08T07:45:30.029Z,145.28
2023-02-08T07:46:29.740Z,145.67
2023-02-08T07:47:30.065Z,144.95
2023-02-08T07:48:29.756Z,147.74
2023-02-08T07:49:29.747Z,146.50
2023-02-08T07:51:29.754Z,142.31
2023-02-08T07:52:29.719Z,135.49
2023-02-08T07:53:29.705Z,109.84
2023-02-08T07:54:29.697Z,109.59
2023-02-08T07:55:30.049Z,103.81
2023-02-08T07:56:29.680Z,98.20
2023-02-08T07:57:29.678Z,99.20
2023-02-08T07:58:29.667Z,97.14
2023-02-08T07:59:29.662Z,96.40
2023-02-08T08:00:30.071Z,86.61
2023-02-08T08:01:29.099Z,85.92
2023-02-08T08:02:30.061Z,84.80
2023-02-08T08:03:29.613Z,79.78
2023-02-08T08:04:29.634Z,78.85
2023-02-08T08:05:29.620Z,70.70
2023-02-08T08:06:29.594Z,72.29
2023-02-08T08:07:30.091Z,71.88
2023-02-08T08:08:29.595Z,68.45
2023-02-08T08:09:29.560Z,63.97
2023-02-08T08:10:30.091Z,50.93
2023-02-08T08:11:29.806Z,61.42
2023-02-08T08:12:29.545Z,60.13
2023-02-08T08:13:29.533Z,55.79
2023-02-08T08:14:29.527Z,50.67
2023-02-08T08:15:29.511Z,50.64
2023-02-08T08:16:29.606Z,47.60
2023-02-08T08:17:30.182Z,55.06
2023-02-08T08:18:29.500Z,51.98
2023-02-08T08:19:29.487Z,43.39
2023-02-08T08:20:29.488Z,44.15
2023-02-08T08:21:29.591Z,50.23
2023-02-08T08:22:29.463Z,46.53
2023-02-08T08:23:29.608Z,46.12
2023-02-08T08:24:29.439Z,44.76
2023-02-08T08:25:29.403Z,37.99
2023-02-08T08:26:29.559Z,40.29
2023-02-08T08:27:29.411Z,38.19
2023-02-08T08:28:29.650Z,36.10
2023-02-08T08:29:29.394Z,35.94
2023-02-08T08:30:29.410Z,31.70
2023-02-08T08:31:29.692Z,36.08
2023-02-08T08:32:29.365Z,37.45
2023-02-08T08:34:29.356Z,55.80
2023-02-08T08:35:29.682Z,59.11
2023-02-08T08:37:29.330Z,57.44
2023-02-08T08:38:29.315Z,64.40
2023-02-08T08:39:29.337Z,75.36
2023-02-08T08:40:29.316Z,88.45
2023-02-08T08:41:29.578Z,91.37
2023-02-08T08:42:29.281Z,95.26
2023-02-08T08:43:29.273Z,97.36
2023-02-08T08:44:29.275Z,103.33
2023-02-08T08:45:28.269Z,107.03
2023-02-08T08:46:29.600Z,112.30
2023-02-08T08:47:29.234Z,114.78
2023-02-08T08:48:29.653Z,119.12
2023-02-08T08:49:29.197Z,121.36
2023-02-08T08:50:29.556Z,124.59
2023-02-08T08:51:29.550Z,124.59
2023-02-08T08:53:29.162Z,129.03
2023-02-08T08:54:29.151Z,129.78
2023-02-08T08:56:29.567Z,137.52
2023-02-08T08:57:29.123Z,141.41
2023-02-08T08:58:29.144Z,145.68
2023-02-08T08:59:29.113Z,143.35
2023-02-08T09:00:29.098Z,142.71
2023-02-08T09:01:29.594Z,145.45
2023-02-08T09:02:29.088Z,144.72
2023-02-08T09:03:29.209Z,145.63
2023-02-08T09:04:29.065Z,147.77
2023-02-08T09:05:29.067Z,147.60
2023-02-08T09:06:29.044Z,148.80
2023-02-08T09:07:29.039Z,147.34
2023-02-08T09:08:29.025Z,147.83
2023-02-08T09:09:29.019Z,146.46
2023-02-08T09:10:29.057Z,144.78
2023-02-08T09:11:29.071Z,145.85
2023-02-08T09:12:28.982Z,145.99
2023-02-08T09:13:28.977Z,146.73
2023-02-08T09:14:28.977Z,141.79
2023-02-08T09:15:28.974Z,143.51
2023-02-08T09:16:29.042Z,141.67
2023-02-08T09:17:29.056Z,143.73
2023-02-08T09:18:28.929Z,143.14
2023-02-08T09:19:28.933Z,141.43
2023-02-08T09:20:28.927Z,141.73
2023-02-08T09:21:28.903Z,140.88
2023-02-08T09:22:29.058Z,137.59
2023-02-08T09:23:28.886Z,137.74
2023-02-08T09:24:29.083Z,138.32
2023-02-08T09:25:28.866Z,137.47
2023-02-08T09:26:28.862Z,135.73
2023-02-08T09:27:28.877Z,132.47
2023-02-08T09:28:28.843Z,123.18
2023-02-08T09:29:29.058Z,123.61
2023-02-08T09:30:28.839Z,126.24
2023-02-08T09:31:28.947Z,121.08
2023-02-08T09:32:28.812Z,120.79
2023-02-08T09:33:28.813Z,118.63
2023-02-08T09:34:28.798Z,113.73
2023-02-08T09:35:28.807Z,114.14
2023-02-08T09:36:28.798Z,116.19
2023-02-08T09:37:28.773Z,115.56
2023-02-08T09:38:28.764Z,114.68
2023-02-08T09:39:29.060Z,117.20
2023-02-08T09:40:28.785Z,116.47
2023-02-08T09:41:28.761Z,110.83
2023-02-08T09:42:36.120Z,107.30
2023-02-08T09:43:28.720Z,107.87
2023-02-08T09:44:28.717Z,107.65
2023-02-08T09:45:28.701Z,109.56
2023-02-08T09:46:28.724Z,112.23
2023-02-08T09:47:29.113Z,122.11
2023-02-08T09:48:28.685Z,122.38
2023-02-08T09:50:28.658Z,124.23
2023-02-08T09:51:28.646Z,117.87
2023-02-08T09:52:29.085Z,114.45
2023-02-08T09:53:28.634Z,114.46
2023-02-08T09:54:28.624Z,113.98
2023-02-08T09:55:28.611Z,114.82
2023-02-08T09:57:29.120Z,111.00
2023-02-08T09:58:28.609Z,110.70
2023-02-08T09:59:28.581Z,109.17
2023-02-08T10:00:28.599Z,106.33
2023-02-08T10:02:28.596Z,105.04
2023-02-08T10:03:28.632Z,103.28
2023-02-08T10:04:28.555Z,101.18
2023-02-08T10:05:28.530Z,97.72
2023-02-08T10:06:28.549Z,92.41
2023-02-08T10:07:28.623Z,96.23
2023-02-08T10:08:34.925Z,95.26
2023-02-08T10:09:28.489Z,95.28
2023-02-08T10:10:28.477Z,95.42
2023-02-08T10:11:28.494Z,93.68
2023-02-08T10:12:28.485Z,90.08
2023-02-08T10:13:40.720Z,90.50
2023-02-08T10:14:28.472Z,95.38
2023-02-08T10:15:28.438Z,95.51
2023-02-08T10:16:28.478Z,97.70
2023-02-08T10:17:28.428Z,94.91
2023-02-08T10:18:28.470Z,93.01
2023-02-08T10:19:28.398Z,76.38
2023-02-08T10:20:28.425Z,80.20
2023-02-08T10:21:28.594Z,94.04
2023-02-08T10:22:28.371Z,88.93
2023-02-08T10:23:28.404Z,93.26
2023-02-08T10:24:28.646Z,97.14
2023-02-08T10:25:28.352Z,96.81
2023-02-08T10:26:28.377Z,88.58
2023-02-08T10:27:28.359Z,89.29
2023-02-08T10:28:28.464Z,63.81
2023-02-08T10:29:28.619Z,63.32
2023-02-08T10:30:28.409Z,81.97
2023-02-08T10:31:28.349Z,70.70
2023-02-08T10:32:28.296Z,70.57
2023-02-08T10:33:28.275Z,76.09
2023-02-08T10:35:28.258Z,86.64
2023-02-08T10:36:28.258Z,85.26
2023-02-08T10:37:28.247Z,84.20
2023-02-08T10:39:28.227Z,84.55
2023-02-08T10:40:28.216Z,94.52
2023-02-08T10:41:28.205Z,86.35
2023-02-08T10:44:28.234Z,94.57
2023-02-08T10:45:28.175Z,95.65
2023-02-08T10:46:28.230Z,91.33
2023-02-08T10:47:28.146Z,102.31
2023-02-08T10:48:28.157Z,90.00
2023-02-08T10:49:28.134Z,93.05
2023-02-08T10:50:30.207Z,84.51
2023-02-08T10:51:28.134Z,86.48
2023-02-08T10:52:28.116Z,88.53
2023-02-08T10:53:28.312Z,85.36
2023-02-08T10:54:28.098Z,82.97
2023-02-08T10:55:28.079Z,74.87
2023-02-08T10:56:28.108Z,68.96
2023-02-08T10:58:29.073Z,72.53
2023-02-08T10:59:28.143Z,70.53
2023-02-08T11:01:28.161Z,57.95
2023-02-08T11:02:28.156Z,60.69
2023-02-08T11:03:28.111Z,57.73
2023-02-08T11:04:28.149Z,68.48
2023-02-08T11:05:28.109Z,55.71
2023-02-08T11:06:28.096Z,46.83
2023-02-08T11:07:28.076Z,60.46
2023-02-08T11:08:28.334Z,54.36
2023-02-08T11:09:28.058Z,60.17
2023-02-08T11:10:28.044Z,51.56
2023-02-08T11:11:28.028Z,54.88
2023-02-08T11:12:28.020Z,70.30
2023-02-08T11:13:28.007Z,66.53
2023-02-08T11:14:37.892Z,43.42
2023-02-08T11:15:28.009Z,43.68
2023-02-08T11:16:28.038Z,45.90
2023-02-08T11:17:28.001Z,46.88
2023-02-08T11:18:28.131Z,49.11
2023-02-08T11:19:27.965Z,50.09
2023-02-08T11:20:27.955Z,73.70
2023-02-08T11:21:27.950Z,67.38
2023-02-08T11:22:27.932Z,58.22
2023-02-08T11:23:28.113Z,69.02
2023-02-08T11:24:27.923Z,67.43
2023-02-08T11:25:27.905Z,60.91
2023-02-08T11:26:27.908Z,70.37
2023-02-08T11:27:28.124Z,63.33
2023-02-08T11:28:27.917Z,54.30
2023-02-08T11:29:27.887Z,26.12
2023-02-08T11:30:27.884Z,58.14
2023-02-08T11:31:27.874Z,39.94
2023-02-08T11:32:28.125Z,33.77
2023-02-08T11:33:28.131Z,26.64
2023-02-08T11:34:27.872Z,34.75
2023-02-08T11:35:28.118Z,31.86
2023-02-08T11:36:27.820Z,33.29
2023-02-08T11:37:27.807Z,25.00
2023-02-08T11:38:27.795Z,25.00
2023-02-08T11:39:27.798Z,30.69
2023-02-08T11:40:28.135Z,25.00
2023-02-08T11:41:27.769Z,45.51
2023-02-08T11:42:27.770Z,27.51
2023-02-08T11:43:27.748Z,25.48
2023-02-08T11:44:28.126Z,26.76
2023-02-08T11:45:27.736Z,25.00
2023-02-08T11:46:28.152Z,32.24
2023-02-08T11:47:27.722Z,30.61
2023-02-08T11:48:27.710Z,29.66
2023-02-08T11:49:28.130Z,28.74
2023-02-08T11:50:27.731Z,24.43
2023-02-08T11:51:27.694Z,36.12
2023-02-08T11:52:27.669Z,25.00
2023-02-08T11:53:27.675Z,51.02
2023-02-08T11:54:27.664Z,44.60
2023-02-08T11:55:27.651Z,59.77
2023-02-08T11:56:27.642Z,59.61
2023-02-08T11:57:27.636Z,73.94
2023-02-08T11:58:27.627Z,71.75
2023-02-08T11:59:27.616Z,83.35
2023-02-08T12:00:27.611Z,101.69
2023-02-08T12:01:27.595Z,105.20
2023-02-08T12:02:27.656Z,104.65
2023-02-08T12:03:27.627Z,103.31
2023-02-08T12:04:27.632Z,93.07
2023-02-08T12:05:27.562Z,107.53
2023-02-08T12:06:27.608Z,105.88
2023-02-08T12:07:27.545Z,89.71
2023-02-08T12:08:27.549Z,82.08
2023-02-08T12:09:27.646Z,72.15
2023-02-08T12:10:27.520Z,83.50
2023-02-08T12:11:27.636Z,92.48
2023-02-08T12:12:27.500Z,90.22
2023-02-08T12:13:27.526Z,96.47
2023-02-08T12:14:27.491Z,119.09
2023-02-08T12:15:27.517Z,118.83
2023-02-08T12:16:27.734Z,113.99
2023-02-08T12:17:27.458Z,108.12
2023-02-08T12:18:27.640Z,85.33
2023-02-08T12:19:27.455Z,84.75
2023-02-08T12:20:27.440Z,97.16
2023-02-08T12:21:27.646Z,86.16
2023-02-08T12:22:27.449Z,40.04
2023-02-08T12:23:27.405Z,42.67
2023-02-08T12:24:27.395Z,62.52
2023-02-08T12:25:27.390Z,59.87
2023-02-08T12:26:27.418Z,54.53
2023-02-08T12:27:27.595Z,26.59
2023-02-08T12:28:27.362Z,28.68
2023-02-08T12:29:33.179Z,40.80
2023-02-08T12:30:27.340Z,41.83
2023-02-08T12:31:27.509Z,44.29
2023-02-08T12:32:27.325Z,47.34
2023-02-08T12:33:27.313Z,51.96
2023-02-08T12:34:27.646Z,71.01
2023-02-08T12:35:40.210Z,80.33
2023-02-08T12:36:27.302Z,80.50
2023-02-08T12:37:27.280Z,72.59
2023-02-08T12:38:27.291Z,49.91
2023-02-08T12:39:27.648Z,57.10
2023-02-08T12:40:27.249Z,63.34
2023-02-08T12:41:27.246Z,45.96
2023-02-08T12:42:27.246Z,44.88
2023-02-08T12:43:27.235Z,59.69
2023-02-08T12:44:27.218Z,56.11
2023-02-08T12:45:27.654Z,47.57
2023-02-08T12:46:27.284Z,59.73
2023-02-08T12:47:27.198Z,39.26
2023-02-08T12:48:27.182Z,48.54
2023-02-08T12:49:27.181Z,53.76
2023-02-08T12:50:27.646Z,47.25
2023-02-08T12:51:27.165Z,25.46
2023-02-08T12:52:27.151Z,24.00
2023-02-08T12:53:27.141Z,25.99
2023-02-08T12:54:27.152Z,25.00
2023-02-08T12:55:27.142Z,32.84
2023-02-08T12:56:27.107Z,27.98
2023-02-08T12:57:27.151Z,30.76
2023-02-08T12:58:27.094Z,35.54
2023-02-08T12:59:27.083Z,25.78
2023-02-08T13:00:27.147Z,42.95
2023-02-08T13:01:27.095Z,45.28
2023-02-08T13:02:27.105Z,54.35
2023-02-08T13:03:27.056Z,25.45
2023-02-08T13:04:27.041Z,31.14
2023-02-08T13:05:27.030Z,51.42
2023-02-08T13:06:27.027Z,64.52
2023-02-08T13:07:27.016Z,50.70
2023-02-08T13:08:27.013Z,57.78
2023-02-08T13:09:26.999Z,71.24
2023-02-08T13:10:27.029Z,88.82
2023-02-08T13:11:26.979Z,96.63
2023-02-08T13:12:26.972Z,84.68
2023-02-08T13:13:26.975Z,85.63
2023-02-08T13:14:26.959Z,80.39
2023-02-08T13:15:31.048Z,68.62
2023-02-08T13:16:26.965Z,66.81
2023-02-08T13:17:26.929Z,71.45
2023-02-08T13:18:27.156Z,72.76
2023-02-08T13:19:26.908Z,86.05
2023-02-08T13:20:26.905Z,105.47
2023-02-08T13:21:26.892Z,122.64
2023-02-08T13:22:26.903Z,132.77
2023-02-08T13:23:26.882Z,131.38
2023-02-08T13:24:26.865Z,111.86
2023-02-08T13:25:26.858Z,104.16
2023-02-08T13:26:26.870Z,108.44
2023-02-08T13:27:26.844Z,117.29
2023-02-08T13:28:26.891Z,123.66
2023-02-08T13:29:28.438Z,142.43
2023-02-08T13:30:27.183Z,138.36
2023-02-08T13:31:26.966Z,143.29
2023-02-08T13:32:26.799Z,151.99
2023-02-08T13:33:26.788Z,139.11
2023-02-08T13:34:26.780Z,143.42
2023-02-08T13:35:26.772Z,119.85
2023-02-08T13:36:26.787Z,123.48
2023-02-08T13:37:28.993Z,123.02
2023-02-08T13:38:26.741Z,123.02
2023-02-08T13:39:26.774Z,113.83
2023-02-08T13:40:27.256Z,117.51
2023-02-08T13:41:26.725Z,121.80
2023-02-08T13:42:26.735Z,121.48
2023-02-08T13:43:35.201Z,120.29
2023-02-08T13:44:26.695Z,120.40
2023-02-08T13:45:26.691Z,120.81
2023-02-08T13:46:26.694Z,107.07
2023-02-08T13:47:26.673Z,98.76
2023-02-08T13:48:26.669Z,103.78
2023-02-08T13:49:26.654Z,104.89
2023-02-08T13:50:29.074Z,107.01
2023-02-08T13:51:26.672Z,99.25
2023-02-08T13:52:30.035Z,103.03
2023-02-08T13:53:26.622Z,107.22
2023-02-08T13:54:26.616Z,108.01